EZY501L LIMC-LICC
Flight info
| Callsign | EZY501L |
|---|---|
| Flight time | N/A |
| Altitude | 39000 |
| Route | ROBAS DCT BEROK DCT TINKU DCT LURON DCT BEKIV DCT ENEPA M871 LIBRO |
| Aircraft | A20N/M-SDE2E3FGHIRWXY/LB1 |
Departure
| Time | N/A |
|---|---|
| Airport | Milan Malpensa International Airport (LIMC) |
Arrival
| Time | 2026-05-05 14:11 |
|---|---|
| Airport | Catania-Fontanarossa Airport (LICC) |
| Time | Latitude | Longitude | Altitude | Speed | Heading |
|---|---|---|---|---|---|
| 2026-05-05 14:00 | 37.51926 | 14.50746 | 10213 ft | 277 kts | 263° |
| 2026-05-05 14:00 | 37.51641 | 14.48388 | 10119 ft | 265 kts | 253° |
| 2026-05-05 14:01 | 37.50804 | 14.46406 | 9997 ft | 251 kts | 230° |
| 2026-05-05 14:01 | 37.49460 | 14.45055 | 9630 ft | 249 kts | 207° |
| 2026-05-05 14:01 | 37.47777 | 14.44522 | 9295 ft | 252 kts | 183° |
| 2026-05-05 14:01 | 37.46017 | 14.44714 | 8934 ft | 255 kts | 175° |
| 2026-05-05 14:02 | 37.44260 | 14.45012 | 8629 ft | 255 kts | 168° |
| 2026-05-05 14:02 | 37.42696 | 14.46042 | 8326 ft | 257 kts | 138° |
| 2026-05-05 14:02 | 37.41723 | 14.47887 | 8009 ft | 258 kts | 108° |
| 2026-05-05 14:02 | 37.41551 | 14.50111 | 7721 ft | 257 kts | 84° |
| 2026-05-05 14:03 | 37.41844 | 14.52319 | 7442 ft | 254 kts | 76° |
| 2026-05-05 14:03 | 37.42228 | 14.54474 | 7195 ft | 251 kts | 79° |
| 2026-05-05 14:03 | 37.42491 | 14.56634 | 6944 ft | 249 kts | 82° |
| 2026-05-05 14:03 | 37.42680 | 14.58792 | 6690 ft | 246 kts | 83° |
| 2026-05-05 14:04 | 37.42856 | 14.60924 | 6369 ft | 244 kts | 83° |
| 2026-05-05 14:04 | 37.43033 | 14.63039 | 6014 ft | 243 kts | 83° |
| 2026-05-05 14:04 | 37.43207 | 14.65117 | 5677 ft | 241 kts | 83° |
| 2026-05-05 14:04 | 37.43383 | 14.67208 | 5327 ft | 239 kts | 84° |
| 2026-05-05 14:05 | 37.43556 | 14.69286 | 4988 ft | 238 kts | 84° |
| 2026-05-05 14:05 | 37.43729 | 14.71355 | 4643 ft | 237 kts | 84° |
| 2026-05-05 14:05 | 37.43900 | 14.73391 | 4434 ft | 229 kts | 84° |
| 2026-05-05 14:05 | 37.44061 | 14.75338 | 4379 ft | 215 kts | 84° |
| 2026-05-05 14:06 | 37.44215 | 14.77156 | 4142 ft | 204 kts | 84° |
| 2026-05-05 14:06 | 37.44359 | 14.78892 | 3875 ft | 197 kts | 84° |
| 2026-05-05 14:06 | 37.44502 | 14.80614 | 3536 ft | 197 kts | 85° |
| 2026-05-05 14:06 | 37.44644 | 14.82307 | 3213 ft | 198 kts | 85° |
| 2026-05-05 14:07 | 37.44786 | 14.84020 | 2935 ft | 194 kts | 85° |
| 2026-05-05 14:07 | 37.44928 | 14.85683 | 2682 ft | 189 kts | 85° |
| 2026-05-05 14:07 | 37.45061 | 14.87302 | 2443 ft | 182 kts | 85° |
| 2026-05-05 14:07 | 37.45190 | 14.88834 | 2214 ft | 172 kts | 85° |
| 2026-05-05 14:08 | 37.45310 | 14.90283 | 1995 ft | 164 kts | 84° |
| 2026-05-05 14:08 | 37.45415 | 14.91650 | 1838 ft | 149 kts | 85° |
| 2026-05-05 14:08 | 37.45513 | 14.92903 | 1763 ft | 144 kts | 84° |
| 2026-05-05 14:08 | 37.45628 | 14.94221 | 1817 ft | 153 kts | 85° |
| 2026-05-05 14:09 | 37.45735 | 14.95552 | 1834 ft | 157 kts | 85° |
| 2026-05-05 14:09 | 37.45860 | 14.96883 | 1663 ft | 147 kts | 83° |
| 2026-05-05 14:09 | 37.45989 | 14.98119 | 1417 ft | 137 kts | 83° |
| 2026-05-05 14:09 | 37.46091 | 14.99282 | 1222 ft | 130 kts | 86° |
| 2026-05-05 14:10 | 37.46187 | 15.00425 | 1003 ft | 132 kts | 85° |
| 2026-05-05 14:10 | 37.46259 | 15.01570 | 849 ft | 134 kts | 86° |
| 2026-05-05 14:10 | 37.46349 | 15.02735 | 610 ft | 134 kts | 84° |
| 2026-05-05 14:10 | 37.46451 | 15.03897 | 354 ft | 132 kts | 83° |
| 2026-05-05 14:11 | 37.46552 | 15.05054 | 139 ft | 133 kts | 85° |
| 2026-05-05 14:11 | 37.46646 | 15.06178 | 39 ft | 119 kts | 85° |
| 2026-05-05 14:11 | 37.46706 | 15.07006 | 35 ft | 72 kts | 84° |
| 2026-05-05 14:11 | 37.46747 | 15.07448 | 32 ft | 31 kts | 81° |
| 2026-05-05 14:12 | 37.46785 | 15.07630 | 31 ft | 21 kts | 64° |
| 2026-05-05 14:12 | 37.46858 | 15.07776 | 30 ft | 7 kts | 52° |
| 2026-05-05 14:12 | 37.46910 | 15.07806 | 29 ft | 10 kts | 347° |
| 2026-05-05 14:12 | 37.46938 | 15.07731 | 30 ft | 11 kts | 263° |
| 2026-05-05 14:13 | 37.46927 | 15.07623 | 32 ft | 14 kts | 263° |
| 2026-05-05 14:13 | 37.46916 | 15.07487 | 32 ft | 18 kts | 264° |
| 2026-05-05 14:13 | 37.46901 | 15.07321 | 33 ft | 21 kts | 264° |
| 2026-05-05 14:13 | 37.46886 | 15.07128 | 34 ft | 23 kts | 263° |
| 2026-05-05 14:14 | 37.46870 | 15.06955 | 31 ft | 18 kts | 264° |
| 2026-05-05 14:14 | 37.46882 | 15.06872 | 30 ft | 9 kts | 321° |
| 2026-05-05 14:14 | 37.46935 | 15.06864 | 29 ft | 8 kts | 351° |
| 2026-05-05 14:14 | 37.46947 | 15.06862 | 29 ft | 1 kts | 355° |
| 2026-05-05 14:15 | 37.46945 | 15.06863 | 29 ft | 0 kts | 353° |